Tieton, WA

4:40 AM PST on December 25, 2014 (GMT -0800)
Tieton, WA | Change Station
CLOSE
Current Station
Personal Weather Station
Location: Tieton, WA
Elevation: 1970 ft
Nearby Weather Stations

Elev 1970 ft 46.71 °N, 120.72 °W | Updated 8 seconds ago

Clear
Clear
39.1 °F
Feels Like 34 °F
N
7.0
Wind Variable Wind from West
Gusts 12.0 mph

Today
High -- | Low -- °F
--% Chance of Precip.
Yesterday
High -- | Low -- °F
Precip. -- in
7:46 AM 4:19 PM
Waxing Crescent, 16% visible
Pressure 30.03 in
Visibility 10.0 miles
Clouds Clear
Windchill 34 °F
Dew Point 30 °F
Humidity 69%
Rainfall 0.00 in
Snow Depth Not available.
UV 0 out of 12
Pollen .90 out of 12
Air Quality Not available.
Flu Activity Not available.
METAR KYKM 251153Z AUTO 27009KT 10SM CLR 01/M04 A3000 RMK AO2 SLP167 70001 T00061044 10056 21017 51018 $

More Conditions Fewer Conditions

Pressure 30.03 in
Visibility 10.0 miles
Clouds Clear
Windchill 34 °F
Dew Point 30 °F
Humidity 69%
Rainfall 0.00 in
Snow Depth Not available.
UV 0 out of 12
Pollen .90 out of 12
Air Quality Not available.
Flu Activity Not available.
METAR KYKM 251153Z AUTO 27009KT 10SM CLR 01/M04 A3000 RMK AO2 SLP167 70001 T00061044 10056 21017 51018 $

More Conditions Fewer Conditions

10-Day Weather Forecast

Almanac

Astronomy

Dec. 25, 2014 Rise Set
Actual Time
Civil Twilight
Nautical Twilight
Astronomical Twilight
Moon
Length of Visible Light
Length of Day
Tomorrow will be .
, % of the Moon is Illuminated

Today's Extremes

State Highs State Lows

Community

WunderPhotos

Upload Photos

1,780,266 photos uploaded!

WunderBlogs® & News

Nearby

Air Quality

  Air Quality AQ Index Pollutant
Not available.

Snow Depth

Station Depth Elevation

Earthquake Activity

City Distance Mag. Time & Date
Minimum magnitude displayed is 2.5.

Coastal Water Temperatures

Place Temperature

Nearby Weather Stations